createdAt,value
2022-10-04T00:01:13.712Z,1.40
2022-10-04T00:03:50.020Z,1.30
2022-10-04T00:06:24.697Z,1.52
2022-10-04T00:09:01.067Z,1.67
2022-10-04T00:11:44.160Z,1.48
2022-10-04T00:14:27.934Z,1.77
2022-10-04T00:16:56.529Z,1.70
2022-10-04T00:19:48.068Z,1.90
2022-10-04T00:22:27.667Z,1.83
2022-10-04T00:25:10.081Z,1.80
2022-10-04T00:27:39.683Z,2.10
2022-10-04T00:30:06.823Z,1.83
2022-10-04T00:32:40.384Z,2.00
2022-10-04T00:35:27.807Z,2.22
2022-10-04T00:38:29.697Z,1.75
2022-10-04T00:41:08.975Z,2.05
2022-10-04T00:43:47.352Z,1.80
2022-10-04T00:46:25.547Z,1.65
2022-10-04T00:49:03.304Z,1.85
2022-10-04T00:51:43.857Z,2.00
2022-10-04T00:54:35.418Z,1.58
2022-10-04T00:57:08.194Z,1.88
2022-10-04T00:59:49.149Z,1.75
2022-10-04T01:02:46.237Z,1.88
2022-10-04T01:05:22.371Z,2.00
2022-10-04T01:07:56.844Z,1.83
2022-10-04T01:10:39.538Z,1.73
2022-10-04T01:13:20.616Z,1.40
2022-10-04T01:16:14.953Z,1.90
2022-10-04T01:18:42.538Z,1.63
2022-10-04T01:21:28.123Z,1.70
2022-10-04T01:23:58.267Z,1.65
2022-10-04T01:26:32.520Z,1.67
2022-10-04T01:29:18.214Z,1.90
2022-10-04T01:31:51.216Z,1.58
2022-10-04T01:34:24.504Z,1.65
2022-10-04T01:36:57.760Z,1.45
2022-10-04T01:39:27.200Z,1.65
2022-10-04T01:42:11.439Z,1.50
2022-10-04T01:44:49.907Z,1.33
2022-10-04T01:47:27.104Z,1.48
2022-10-04T01:49:58.391Z,1.58
2022-10-04T01:52:37.165Z,1.50
2022-10-04T01:55:19.526Z,1.10
2022-10-04T01:58:16.566Z,1.15
2022-10-04T02:00:52.402Z,1.05
2022-10-04T02:03:45.847Z,1.23
2022-10-04T02:06:15.829Z,1.33
2022-10-04T02:08:49.937Z,1.08
2022-10-04T02:11:20.527Z,0.85
2022-10-04T02:13:52.601Z,1.25
2022-10-04T02:16:22.113Z,1.15
2022-10-04T02:18:51.432Z,1.60
2022-10-04T02:21:20.134Z,1.60
2022-10-04T02:23:48.017Z,1.42
2022-10-04T02:26:15.336Z,1.58
2022-10-04T02:28:42.694Z,1.42
2022-10-04T02:31:29.919Z,1.50
2022-10-04T02:33:59.394Z,1.27
2022-10-04T02:36:29.811Z,1.33
2022-10-04T02:39:13.796Z,1.48
2022-10-04T02:41:53.213Z,1.52
2022-10-04T02:44:26.569Z,1.27
2022-10-04T02:47:17.752Z,1.50
2022-10-04T02:50:39.096Z,1.40
2022-10-04T02:53:32.518Z,1.10
2022-10-04T02:56:02.610Z,0.90
2022-10-04T02:58:31.005Z,1.25
2022-10-04T03:01:01.930Z,1.17
2022-10-04T03:03:35.291Z,1.10
2022-10-04T03:06:20.726Z,1.02
2022-10-04T03:08:59.144Z,1.33
2022-10-04T03:11:31.937Z,1.25
2022-10-04T03:14:03.168Z,1.10
2022-10-04T03:16:40.797Z,1.10
2022-10-04T03:19:09.213Z,1.23
2022-10-04T03:21:39.371Z,1.13
2022-10-04T03:24:08.979Z,1.10
2022-10-04T03:26:50.761Z,1.25
2022-10-04T03:29:19.699Z,1.10
2022-10-04T03:31:51.319Z,1.00
2022-10-04T03:34:26.587Z,1.13
2022-10-04T03:36:59.283Z,1.20
2022-10-04T03:39:43.120Z,1.33
2022-10-04T03:42:24.369Z,1.10
2022-10-04T03:44:56.511Z,1.00
2022-10-04T03:47:40.662Z,1.08
2022-10-04T03:50:26.505Z,0.90
2022-10-04T03:53:07.177Z,0.98
2022-10-04T03:55:43.714Z,1.05
2022-10-04T03:58:17.318Z,0.98
2022-10-04T04:01:10.207Z,0.93
2022-10-04T04:04:05.346Z,0.70
2022-10-04T04:07:07.341Z,0.90
2022-10-04T04:10:06.076Z,0.88
2022-10-04T04:12:44.402Z,0.68
2022-10-04T04:15:14.291Z,0.80
2022-10-04T04:17:46.425Z,0.85
2022-10-04T04:20:34.942Z,1.00
2022-10-04T04:23:45.045Z,0.98
2022-10-04T04:26:25.793Z,1.20
2022-10-04T04:29:36.833Z,1.00
2022-10-04T04:32:28.547Z,0.95
2022-10-04T04:35:07.095Z,1.00
2022-10-04T04:37:38.884Z,1.00
2022-10-04T04:42:52.602Z,0.80
2022-10-04T04:45:25.882Z,1.00
2022-10-04T04:47:57.367Z,0.90
2022-10-04T04:50:56.158Z,0.88
2022-10-04T04:53:29.121Z,0.93
2022-10-04T04:56:05.037Z,1.23
2022-10-04T04:58:43.077Z,0.93
2022-10-04T05:01:33.495Z,1.42
2022-10-04T05:04:14.492Z,1.80
2022-10-04T05:06:50.051Z,1.30
2022-10-04T05:09:23.219Z,1.40
2022-10-04T05:11:52.957Z,1.30
2022-10-04T05:14:21.219Z,1.80
2022-10-04T05:16:56.026Z,1.52
2022-10-04T05:19:39.577Z,1.48
2022-10-04T05:22:13.647Z,2.60
2022-10-04T05:24:44.897Z,1.55
2022-10-04T05:27:36.021Z,1.30
2022-10-04T05:30:30.744Z,1.20
2022-10-04T05:33:03.832Z,1.50
2022-10-04T05:36:09.737Z,1.10
2022-10-04T05:39:12.468Z,1.17
2022-10-04T05:42:07.901Z,1.13
2022-10-04T05:44:52.365Z,1.40
2022-10-04T05:47:24.088Z,1.33
2022-10-04T05:52:30.658Z,1.10
2022-10-04T05:55:16.234Z,1.20
2022-10-04T05:57:58.374Z,1.67
2022-10-04T06:01:03.365Z,1.98
2022-10-04T06:04:17.604Z,1.45
2022-10-04T06:06:59.459Z,1.65
2022-10-04T06:09:39.941Z,1.50
2022-10-04T06:12:40.144Z,1.35
2022-10-04T06:15:32.886Z,1.50
2022-10-04T06:18:08.814Z,1.30
2022-10-04T06:21:03.201Z,1.58
2022-10-04T06:23:33.947Z,1.52
2022-10-04T06:26:14.963Z,1.50
2022-10-04T06:28:48.969Z,1.43
2022-10-04T06:31:44.038Z,1.50
2022-10-04T06:34:29.874Z,1.30
2022-10-04T06:37:22.121Z,1.80
2022-10-04T06:40:20.777Z,1.60
2022-10-04T06:43:14.158Z,1.95
2022-10-04T06:46:17.354Z,1.65
2022-10-04T06:49:24.054Z,1.50
2022-10-04T06:52:09.599Z,1.52
2022-10-04T06:55:06.926Z,1.80
2022-10-04T06:58:02.563Z,1.77
2022-10-04T07:00:38.085Z,1.90
2022-10-04T07:03:16.129Z,1.83
2022-10-04T07:05:46.654Z,1.70
2022-10-04T07:08:34.078Z,1.73
2022-10-04T07:11:30.252Z,1.80
2022-10-04T07:14:04.001Z,1.70
2022-10-04T07:16:56.578Z,1.67
2022-10-04T07:19:33.790Z,1.60
2022-10-04T07:22:06.631Z,1.83
2022-10-04T07:24:51.896Z,1.70
2022-10-04T07:28:13.879Z,1.52
2022-10-04T07:31:23.358Z,1.52
2022-10-04T07:33:58.303Z,1.65
2022-10-04T07:36:49.488Z,1.55
2022-10-04T07:39:31.261Z,1.60
2022-10-04T07:42:23.695Z,1.80
2022-10-04T07:45:20.997Z,1.63
2022-10-04T07:47:48.375Z,1.85
2022-10-04T07:50:30.149Z,1.80
2022-10-04T07:53:21.029Z,1.73
2022-10-04T07:56:09.883Z,1.85
2022-10-04T07:59:18.537Z,2.22
2022-10-04T08:02:07.294Z,1.92
2022-10-04T08:05:18.772Z,1.85
2022-10-04T08:08:34.117Z,1.88
2022-10-04T08:11:22.520Z,1.88
2022-10-04T08:14:00.928Z,1.60
2022-10-04T08:17:15.395Z,2.00
2022-10-04T08:20:33.492Z,1.83
2022-10-04T08:23:27.954Z,1.80
2022-10-04T08:26:12.923Z,2.00
2022-10-04T08:29:12.230Z,2.00
2022-10-04T08:32:05.085Z,2.00
2022-10-04T08:34:53.238Z,2.08
2022-10-04T08:37:53.804Z,2.10
2022-10-04T08:40:54.412Z,2.03
2022-10-04T08:44:02.683Z,1.92
2022-10-04T08:46:32.547Z,1.70
2022-10-04T08:50:06.981Z,1.83
2022-10-04T08:53:29.717Z,1.70
2022-10-04T08:59:21.628Z,1.90
2022-10-04T09:02:01.435Z,2.20
2022-10-04T09:04:43.527Z,1.90
2022-10-04T09:10:55.359Z,1.50
2022-10-04T09:13:43.516Z,1.60
2022-10-04T09:16:42.257Z,1.60
2022-10-04T09:19:21.810Z,1.25
2022-10-04T09:22:33.916Z,1.40
2022-10-04T09:25:41.646Z,1.70
2022-10-04T09:28:49.174Z,1.35
2022-10-04T09:31:58.348Z,1.70
2022-10-04T09:34:56.149Z,1.33
2022-10-04T09:38:04.754Z,1.50
2022-10-04T09:41:03.874Z,1.58
2022-10-04T09:44:16.197Z,1.50
2022-10-04T09:47:31.970Z,1.60
2022-10-04T09:50:54.377Z,1.98
2022-10-04T09:54:04.314Z,2.35
2022-10-04T09:57:01.312Z,2.38
2022-10-04T09:59:50.621Z,1.73
2022-10-04T10:02:55.582Z,1.60
2022-10-04T10:06:28.452Z,1.60
2022-10-04T10:12:53.169Z,0.50
2022-10-04T10:15:49.403Z,0.90
2022-10-04T10:18:49.349Z,1.60
2022-10-04T10:21:44.277Z,0.90
2022-10-04T10:24:54.835Z,0.70
2022-10-04T10:27:55.273Z,0.90
2022-10-04T10:30:31.299Z,0.90
2022-10-04T10:33:24.437Z,0.80
2022-10-04T10:36:26.387Z,0.88
2022-10-04T10:39:12.095Z,1.00
2022-10-04T10:42:19.958Z,0.90
2022-10-04T10:45:22.128Z,0.93
2022-10-04T10:48:19.389Z,0.55
2022-10-04T10:51:25.952Z,0.80
2022-10-04T10:54:23.047Z,0.90
2022-10-04T10:57:20.363Z,0.70
2022-10-04T11:00:11.980Z,0.80
2022-10-04T11:03:32.302Z,0.70
2022-10-04T11:06:26.242Z,0.70
2022-10-04T11:09:19.462Z,0.80
2022-10-04T11:12:01.428Z,0.80
2022-10-04T11:15:14.610Z,0.50
2022-10-04T11:18:14.011Z,0.63
2022-10-04T11:20:52.942Z,0.50
2022-10-04T11:23:53.534Z,0.57
2022-10-04T11:26:48.673Z,0.50
2022-10-04T11:29:24.941Z,0.20
2022-10-04T11:32:00.986Z,0.50
2022-10-04T11:34:47.132Z,0.50
2022-10-04T11:37:31.707Z,0.40
2022-10-04T11:40:05.706Z,0.35
2022-10-04T11:43:04.047Z,0.60
2022-10-04T11:46:01.565Z,0.43
2022-10-04T11:49:25.386Z,0.40
2022-10-04T11:52:04.773Z,0.50
2022-10-04T11:55:21.138Z,0.40
2022-10-04T11:58:25.676Z,0.40
2022-10-04T12:01:14.242Z,0.40
2022-10-04T12:04:18.875Z,0.47
2022-10-04T12:07:41.482Z,0.32
2022-10-04T12:10:23.693Z,0.45
2022-10-04T12:13:21.851Z,0.30
2022-10-04T12:16:38.594Z,0.30
2022-10-04T12:20:01.954Z,0.32
2022-10-04T12:23:24.725Z,0.50
2022-10-04T12:26:47.633Z,0.38
2022-10-04T12:29:42.581Z,0.50
2022-10-04T12:32:27.440Z,0.50
2022-10-04T12:35:35.376Z,0.50
2022-10-04T12:38:23.477Z,0.50
2022-10-04T12:41:27.832Z,0.32
2022-10-04T12:44:35.672Z,0.50
2022-10-04T12:47:25.390Z,0.45
2022-10-04T12:50:26.135Z,0.45
2022-10-04T12:54:01.504Z,0.52
2022-10-04T12:56:41.574Z,0.40
2022-10-04T12:59:39.951Z,0.40
2022-10-04T13:02:44.723Z,0.30
2022-10-04T13:05:30.059Z,0.32
2022-10-04T13:08:16.656Z,0.30
2022-10-04T13:11:36.577Z,0.50
2022-10-04T13:14:31.427Z,0.50
2022-10-04T13:17:27.818Z,0.30
2022-10-04T13:20:32.019Z,0.40
2022-10-04T13:23:10.566Z,0.40
2022-10-04T13:26:21.231Z,0.52
2022-10-04T13:29:13.337Z,0.43
2022-10-04T13:32:04.657Z,0.50
2022-10-04T13:34:54.071Z,0.50
2022-10-04T13:37:45.855Z,0.50
2022-10-04T13:40:50.689Z,0.70
2022-10-04T13:43:55.139Z,0.50
2022-10-04T13:47:04.785Z,0.60
2022-10-04T13:50:17.597Z,0.40
2022-10-04T13:53:37.049Z,0.55
2022-10-04T13:56:42.487Z,0.60
2022-10-04T13:59:37.204Z,0.60
2022-10-04T14:02:52.926Z,0.50
2022-10-04T14:05:47.032Z,0.50
2022-10-04T14:08:36.786Z,0.47
2022-10-04T14:11:49.216Z,0.52
2022-10-04T14:17:28.069Z,0.40
2022-10-04T14:20:47.950Z,0.52
2022-10-04T14:23:44.526Z,0.40
2022-10-04T14:27:13.347Z,0.63
2022-10-04T14:30:20.865Z,0.60
2022-10-04T14:33:31.040Z,0.50
2022-10-04T14:36:16.603Z,0.57
2022-10-04T14:39:13.826Z,0.50
2022-10-04T14:42:02.513Z,0.50
2022-10-04T14:44:58.302Z,0.50
2022-10-04T14:48:09.794Z,0.43
2022-10-04T14:51:20.052Z,1.02
2022-10-04T14:54:26.931Z,0.30
2022-10-04T14:57:22.653Z,0.45
2022-10-04T15:00:16.462Z,0.50
2022-10-04T15:03:05.377Z,0.50
2022-10-04T15:05:53.209Z,0.50
2022-10-04T15:08:26.610Z,0.88
2022-10-04T15:11:07.255Z,0.50
2022-10-04T15:13:57.666Z,0.60
2022-10-04T15:16:37.297Z,0.60
2022-10-04T15:19:21.970Z,0.82
2022-10-04T15:22:06.515Z,0.70
2022-10-04T15:24:42.690Z,0.70
2022-10-04T15:27:34.150Z,0.60
2022-10-04T15:30:30.904Z,0.60
2022-10-04T15:33:20.680Z,0.70
2022-10-04T15:36:05.473Z,0.60
2022-10-04T15:38:48.651Z,0.75
2022-10-04T15:41:47.866Z,0.70
2022-10-04T15:45:05.768Z,0.50
2022-10-04T15:48:11.166Z,0.60
2022-10-04T15:51:07.328Z,0.57
2022-10-04T15:53:50.287Z,0.50
2022-10-04T15:56:36.030Z,0.65
2022-10-04T15:59:36.306Z,0.73
2022-10-04T16:02:25.080Z,0.50
2022-10-04T16:05:17.744Z,0.70
2022-10-04T16:08:11.742Z,0.77
2022-10-04T16:11:08.620Z,0.50
2022-10-04T16:13:51.830Z,0.60
2022-10-04T16:16:19.514Z,0.63
2022-10-04T16:18:52.477Z,0.70
2022-10-04T16:21:42.255Z,0.80
2022-10-04T16:24:18.413Z,0.65
2022-10-04T16:26:50.993Z,0.60
2022-10-04T16:30:14.469Z,0.70
2022-10-04T16:32:46.942Z,1.17
2022-10-04T16:35:30.302Z,0.90
2022-10-04T16:38:12.737Z,0.63
2022-10-04T16:41:11.474Z,0.68
2022-10-04T16:43:52.936Z,0.95
2022-10-04T16:46:23.320Z,1.17
2022-10-04T16:49:16.475Z,1.17
2022-10-04T16:52:28.170Z,1.35
2022-10-04T16:54:58.154Z,1.00
2022-10-04T16:57:27.923Z,1.20
2022-10-04T17:00:07.542Z,1.42
2022-10-04T17:02:58.242Z,1.85
2022-10-04T17:06:14.138Z,2.08
2022-10-04T17:09:30.890Z,2.03
2022-10-04T17:12:27.283Z,2.20
2022-10-04T17:15:07.921Z,2.20
2022-10-04T17:18:06.363Z,2.30
2022-10-04T17:20:42.596Z,2.20
2022-10-04T17:23:43.648Z,2.20
2022-10-04T17:26:38.922Z,1.80
2022-10-04T17:29:53.754Z,1.70
2022-10-04T17:32:55.490Z,2.00
2022-10-04T17:36:19.283Z,1.95
2022-10-04T17:39:20.015Z,2.33
2022-10-04T17:41:56.823Z,2.38
2022-10-04T17:44:48.066Z,2.00
2022-10-04T17:47:23.970Z,1.90
2022-10-04T17:50:21.827Z,2.33
2022-10-04T17:53:15.983Z,1.85
2022-10-04T17:55:56.059Z,1.65
2022-10-04T17:58:39.930Z,1.58
2022-10-04T18:01:35.405Z,1.83
2022-10-04T18:04:26.266Z,1.52
2022-10-04T18:07:10.341Z,1.77
2022-10-04T18:09:50.816Z,1.88
2022-10-04T18:13:02.112Z,1.88
2022-10-04T18:15:32.673Z,1.92
2022-10-04T18:18:23.052Z,2.25
2022-10-04T18:21:05.371Z,2.10
2022-10-04T18:23:39.618Z,1.95
2022-10-04T18:26:18.365Z,2.20
2022-10-04T18:28:47.629Z,2.17
2022-10-04T18:31:43.889Z,2.13
2022-10-04T18:34:10.960Z,2.47
2022-10-04T18:37:05.585Z,2.42
2022-10-04T18:39:45.738Z,2.17
2022-10-04T18:42:30.159Z,2.47
2022-10-04T18:45:21.014Z,2.03
2022-10-04T18:47:51.002Z,1.85
2022-10-04T18:50:20.980Z,1.58
2022-10-04T18:52:59.765Z,1.75
2022-10-04T18:55:52.061Z,1.65
2022-10-04T18:58:49.763Z,1.92
2022-10-04T19:02:01.716Z,2.13
2022-10-04T19:04:59.167Z,2.47
2022-10-04T19:07:55.767Z,2.40
2022-10-04T19:10:50.929Z,2.05
2022-10-04T19:13:54.504Z,2.88
2022-10-04T19:16:44.855Z,3.30
2022-10-04T19:19:36.955Z,2.78
2022-10-04T19:22:26.770Z,2.67
2022-10-04T19:25:12.312Z,2.60
2022-10-04T19:27:57.446Z,1.83
2022-10-04T19:31:07.170Z,1.80
2022-10-04T19:34:05.312Z,1.75
2022-10-04T19:36:51.705Z,1.52
2022-10-04T19:39:37.507Z,2.30
2022-10-04T19:42:22.083Z,2.03
2022-10-04T19:45:13.753Z,1.90
2022-10-04T19:47:56.816Z,1.75
2022-10-04T19:50:37.601Z,2.03
2022-10-04T19:53:45.301Z,1.60
2022-10-04T19:56:21.100Z,1.30
2022-10-04T19:59:10.863Z,1.40
2022-10-04T20:01:38.750Z,1.88
2022-10-04T20:04:35.228Z,1.80
2022-10-04T20:07:06.835Z,1.55
2022-10-04T20:09:56.345Z,1.75
2022-10-04T20:12:40.650Z,2.03
2022-10-04T20:15:46.734Z,1.80
2022-10-04T20:18:31.976Z,2.00
2022-10-04T20:21:01.764Z,1.70
2022-10-04T20:23:40.846Z,1.77
2022-10-04T20:26:43.380Z,1.80
2022-10-04T20:32:01.595Z,2.55
2022-10-04T20:34:37.294Z,1.73
2022-10-04T20:37:09.844Z,2.33
2022-10-04T20:39:43.389Z,3.20
2022-10-04T20:42:37.158Z,1.95
2022-10-04T20:45:10.351Z,2.33
2022-10-04T20:47:50.658Z,2.47
2022-10-04T20:50:36.070Z,3.00
2022-10-04T20:53:34.287Z,3.35
2022-10-04T20:56:30.489Z,2.60
2022-10-04T20:59:04.186Z,2.65
2022-10-04T21:01:36.563Z,2.17
2022-10-04T21:04:35.686Z,2.13
2022-10-04T21:07:07.759Z,2.15
2022-10-04T21:09:37.253Z,2.42
2022-10-04T21:12:07.629Z,3.72
2022-10-04T21:14:37.329Z,3.33
2022-10-04T21:17:26.555Z,3.00
2022-10-04T21:19:53.683Z,3.95
2022-10-04T21:22:26.798Z,4.57
2022-10-04T21:24:57.151Z,4.10
2022-10-04T21:27:43.507Z,3.55
2022-10-04T21:30:17.253Z,3.67
2022-10-04T21:32:44.601Z,3.60
2022-10-04T21:35:12.814Z,3.60
2022-10-04T21:37:40.143Z,3.55
2022-10-04T21:40:08.735Z,3.58
2022-10-04T21:42:36.066Z,3.58
2022-10-04T21:45:03.402Z,3.55
2022-10-04T21:47:30.484Z,3.08
2022-10-04T21:49:57.697Z,2.53
2022-10-04T21:52:25.083Z,2.47
2022-10-04T21:54:52.262Z,2.53
2022-10-04T21:57:19.320Z,2.00
2022-10-04T21:59:47.376Z,2.00
2022-10-04T22:02:14.491Z,1.88
2022-10-04T22:04:41.937Z,1.77
2022-10-04T22:07:10.780Z,1.70
2022-10-04T22:09:38.128Z,2.03
2022-10-04T22:12:05.362Z,1.98
2022-10-04T22:14:32.389Z,1.83
2022-10-04T22:16:59.624Z,2.25
2022-10-04T22:19:26.715Z,2.00
2022-10-04T22:21:53.962Z,2.40
2022-10-04T22:24:21.665Z,2.10
2022-10-04T22:26:49.345Z,2.20
2022-10-04T22:29:18.322Z,1.80
2022-10-04T22:31:53.155Z,1.70
2022-10-04T22:34:22.895Z,1.60
2022-10-04T22:36:54.316Z,1.80
2022-10-04T22:39:22.022Z,1.58
2022-10-04T22:41:58.474Z,1.45
2022-10-04T22:44:37.412Z,1.75
2022-10-04T22:47:11.561Z,1.25
2022-10-04T22:49:42.863Z,1.33
2022-10-04T22:52:17.447Z,1.60
2022-10-04T22:54:53.416Z,1.60
2022-10-04T22:57:20.861Z,1.42
2022-10-04T22:59:51.584Z,1.80
2022-10-04T23:02:28.300Z,1.55
2022-10-04T23:05:19.242Z,1.60
2022-10-04T23:07:48.003Z,1.30
2022-10-04T23:10:18.975Z,1.52
2022-10-04T23:12:49.589Z,1.55
2022-10-04T23:15:20.774Z,1.50
2022-10-04T23:17:55.584Z,1.52
2022-10-04T23:20:23.842Z,1.88
2022-10-04T23:22:53.686Z,1.90
2022-10-04T23:25:28.791Z,1.77
2022-10-04T23:28:02.208Z,1.52
2022-10-04T23:30:29.600Z,1.52
2022-10-04T23:33:00.655Z,1.48
2022-10-04T23:35:33.032Z,1.50
2022-10-04T23:38:03.699Z,1.30
2022-10-04T23:40:30.994Z,1.45
2022-10-04T23:42:59.914Z,1.45
2022-10-04T23:45:27.269Z,1.17
2022-10-04T23:47:59.294Z,1.50
2022-10-04T23:50:32.784Z,1.20
2022-10-04T23:53:04.794Z,1.35
2022-10-04T23:55:39.347Z,1.17
2022-10-04T23:58:19.510Z,1.30
